createdAt,value
2022-11-02T00:03:59.634Z,52.73
2022-11-02T00:09:04.312Z,50.70
2022-11-02T00:14:07.141Z,53.33
2022-11-02T00:19:10.484Z,52.30
2022-11-02T00:24:14.646Z,54.10
2022-11-02T00:29:17.473Z,49.10
2022-11-02T00:34:21.161Z,52.57
2022-11-02T00:39:25.308Z,53.33
2022-11-02T00:44:28.061Z,44.50
2022-11-02T00:49:30.863Z,55.67
2022-11-02T00:54:35.404Z,53.13
2022-11-02T00:59:38.153Z,49.63
2022-11-02T01:04:40.904Z,53.83
2022-11-02T01:09:44.986Z,47.37
2022-11-02T01:14:47.745Z,49.33
2022-11-02T01:19:51.557Z,50.90
2022-11-02T01:24:55.696Z,50.47
2022-11-02T01:29:58.476Z,54.07
2022-11-02T01:35:02.722Z,46.63
2022-11-02T01:40:07.787Z,52.97
2022-11-02T01:45:14.193Z,49.80
2022-11-02T01:50:21.618Z,58.33
2022-11-02T01:55:29.340Z,53.67
2022-11-02T02:00:32.081Z,55.47
2022-11-02T02:05:37.091Z,53.00
2022-11-02T02:10:41.178Z,60.87
2022-11-02T02:15:55.785Z,57.87
2022-11-02T02:21:13.151Z,57.67
2022-11-02T02:26:48.631Z,57.47
2022-11-02T02:31:59.146Z,57.77
2022-11-02T02:37:06.589Z,59.00
2022-11-02T02:42:16.798Z,59.93
2022-11-02T02:47:24.477Z,58.63
2022-11-02T02:52:29.050Z,60.80
2022-11-02T02:57:34.862Z,55.23
2022-11-02T03:02:40.223Z,54.20
2022-11-02T03:07:49.038Z,46.00
2022-11-02T03:12:58.133Z,48.77
2022-11-02T03:18:07.019Z,56.57
2022-11-02T03:23:19.061Z,49.13
2022-11-02T03:28:31.411Z,59.10
2022-11-02T03:33:38.311Z,69.87
2022-11-02T03:38:46.072Z,74.13
2022-11-02T03:43:50.822Z,78.90
2022-11-02T03:48:56.970Z,80.83
2022-11-02T03:54:06.359Z,85.27
2022-11-02T03:59:09.485Z,86.67
2022-11-02T04:04:13.986Z,73.00
2022-11-02T04:09:17.547Z,55.37
2022-11-02T04:14:38.775Z,59.80
2022-11-02T04:19:45.509Z,57.97
2022-11-02T04:25:09.356Z,41.60
2022-11-02T04:30:13.242Z,43.93
2022-11-02T04:35:17.574Z,39.90
2022-11-02T04:40:20.311Z,46.47
2022-11-02T04:45:23.118Z,41.13
2022-11-02T04:50:27.259Z,48.27
2022-11-02T04:55:30.852Z,42.30
2022-11-02T05:00:33.583Z,45.10
2022-11-02T05:05:37.678Z,48.07
2022-11-02T05:10:40.502Z,48.67
2022-11-02T05:15:43.245Z,65.27
2022-11-02T05:20:52.082Z,76.07
2022-11-02T05:25:55.788Z,58.13
2022-11-02T05:31:00.690Z,55.70
2022-11-02T05:36:05.447Z,45.87
2022-11-02T05:41:08.258Z,47.60
2022-11-02T05:46:11.036Z,42.97
2022-11-02T05:51:15.098Z,45.13
2022-11-02T05:56:23.663Z,43.70
2022-11-02T06:01:27.724Z,43.37
2022-11-02T06:06:32.361Z,42.13
2022-11-02T06:11:35.237Z,43.87
2022-11-02T06:16:37.980Z,47.60
2022-11-02T06:21:44.495Z,41.60
2022-11-02T06:26:50.192Z,41.27
2022-11-02T06:31:53.889Z,40.77
2022-11-02T06:36:57.962Z,42.47
2022-11-02T06:42:00.718Z,36.10
2022-11-02T06:47:03.513Z,36.10
2022-11-02T06:52:07.706Z,35.87
2022-11-02T06:57:10.454Z,36.50
2022-11-02T07:02:13.537Z,28.57
2022-11-02T07:07:17.659Z,26.50
2022-11-02T07:12:23.151Z,23.27
2022-11-02T07:17:31.877Z,21.67
2022-11-02T07:22:36.325Z,22.50
2022-11-02T07:27:40.053Z,21.93
2022-11-02T07:32:43.365Z,19.20
2022-11-02T07:37:56.104Z,14.87
2022-11-02T07:42:59.307Z,18.90
2022-11-02T07:48:02.106Z,13.60
2022-11-02T07:53:06.524Z,15.80
2022-11-02T07:58:13.557Z,15.27
2022-11-02T08:03:16.483Z,14.38
2022-11-02T08:08:22.291Z,12.52
2022-11-02T08:13:26.900Z,12.07
2022-11-02T08:18:30.784Z,15.18
2022-11-02T08:23:34.892Z,15.20
2022-11-02T08:28:40.112Z,13.15
2022-11-02T08:33:43.241Z,10.23
2022-11-02T08:38:47.274Z,11.10
2022-11-02T08:43:50.020Z,12.95
2022-11-02T08:48:52.839Z,9.73
2022-11-02T08:53:57.061Z,8.85
2022-11-02T08:58:59.897Z,11.25
2022-11-02T09:04:02.659Z,8.15
2022-11-02T09:09:06.834Z,7.82
2022-11-02T09:14:09.721Z,7.93
2022-11-02T09:19:27.848Z,9.35
2022-11-02T09:25:12.369Z,8.40
2022-11-02T09:30:24.508Z,7.72
2022-11-02T09:35:29.483Z,9.70
2022-11-02T09:41:18.085Z,7.35
2022-11-02T09:46:29.846Z,7.00
2022-11-02T09:51:38.574Z,6.80
2022-11-02T09:56:43.684Z,8.20
2022-11-02T10:02:14.086Z,5.72
2022-11-02T10:07:28.855Z,5.78
2022-11-02T10:12:43.201Z,7.07
2022-11-02T10:17:48.882Z,7.18
2022-11-02T10:22:52.844Z,8.77
2022-11-02T10:28:04.914Z,6.72
2022-11-02T10:33:17.368Z,6.15
2022-11-02T10:38:56.493Z,6.10
2022-11-02T10:45:04.350Z,9.15
2022-11-02T10:50:47.830Z,3.85
2022-11-02T10:56:07.725Z,7.07
2022-11-02T11:01:16.158Z,9.85
2022-11-02T11:06:20.230Z,5.45
2022-11-02T11:11:25.385Z,3.95
2022-11-02T11:16:35.308Z,8.50
2022-11-02T11:21:40.261Z,6.85
2022-11-02T11:26:43.652Z,5.15
2022-11-02T11:31:47.844Z,9.15
2022-11-02T11:36:50.786Z,6.03
2022-11-02T11:41:53.802Z,7.10
2022-11-02T11:47:00.150Z,6.63
2022-11-02T11:52:04.082Z,4.82
2022-11-02T11:57:24.406Z,9.02
2022-11-02T12:02:36.811Z,6.60
2022-11-02T12:08:25.886Z,6.45
2022-11-02T12:13:50.616Z,4.78
2022-11-02T12:19:11.376Z,7.47
2022-11-02T12:24:48.817Z,7.63
2022-11-02T12:30:17.840Z,5.93
2022-11-02T12:35:48.490Z,6.50
2022-11-02T12:40:57.722Z,5.55
2022-11-02T12:46:05.019Z,7.82
2022-11-02T12:51:13.932Z,5.95
2022-11-02T12:56:21.554Z,5.30
2022-11-02T13:01:30.183Z,12.57
2022-11-02T13:06:51.260Z,9.20
2022-11-02T13:12:07.190Z,5.72
2022-11-02T13:29:00.453Z,7.82
2022-11-02T13:41:03.363Z,6.43
2022-11-02T13:46:41.469Z,4.45
2022-11-02T13:52:05.075Z,7.60
2022-11-02T13:57:25.136Z,7.90
2022-11-02T14:02:31.894Z,5.15
2022-11-02T14:07:39.637Z,6.60
2022-11-02T14:12:45.595Z,5.72
2022-11-02T14:18:02.847Z,7.20
2022-11-02T14:23:38.132Z,6.18
2022-11-02T14:28:45.014Z,3.92
2022-11-02T14:34:09.859Z,5.30
2022-11-02T14:39:20.882Z,6.43
2022-11-02T14:45:17.905Z,6.88
2022-11-02T14:50:22.247Z,6.63
2022-11-02T14:55:31.018Z,4.43
2022-11-02T15:00:39.327Z,5.70
2022-11-02T15:05:46.195Z,2.50
2022-11-02T15:10:50.055Z,10.45
2022-11-02T15:16:27.556Z,6.57
2022-11-02T15:21:30.370Z,4.65
2022-11-02T15:26:42.262Z,4.90
2022-11-02T15:31:54.865Z,8.10
2022-11-02T15:37:00.369Z,7.88
2022-11-02T15:42:05.523Z,6.78
2022-11-02T15:47:18.582Z,6.95
2022-11-02T15:52:31.213Z,5.68
2022-11-02T15:57:44.818Z,7.35
2022-11-02T16:02:50.588Z,7.57
2022-11-02T16:08:11.744Z,3.53
2022-11-02T16:13:17.750Z,5.65
2022-11-02T16:18:29.817Z,6.97
2022-11-02T16:23:35.316Z,10.15
2022-11-02T16:28:39.718Z,8.52
2022-11-02T16:33:45.654Z,9.15
2022-11-02T16:38:54.926Z,5.18
2022-11-02T16:44:01.037Z,8.45
2022-11-02T16:49:16.165Z,7.20
2022-11-02T16:54:30.672Z,5.90
2022-11-02T16:59:33.746Z,12.80
2022-11-02T17:04:42.473Z,9.07
2022-11-02T17:09:50.971Z,7.80
2022-11-02T17:14:53.767Z,10.20
2022-11-02T17:20:09.526Z,7.25
2022-11-02T17:25:14.760Z,11.60
2022-11-02T17:30:45.376Z,9.68
2022-11-02T17:35:51.325Z,14.57
2022-11-02T17:40:55.297Z,9.73
2022-11-02T17:45:59.000Z,20.20
2022-11-02T17:51:03.072Z,32.13
2022-11-02T17:56:06.365Z,28.03
2022-11-02T18:01:11.506Z,17.47
2022-11-02T18:06:15.726Z,17.63
2022-11-02T18:11:23.416Z,17.07
2022-11-02T18:16:28.801Z,12.73
2022-11-02T18:21:32.946Z,27.27
2022-11-02T18:26:36.027Z,13.57
2022-11-02T18:31:38.870Z,18.13
2022-11-02T18:36:43.151Z,15.30
2022-11-02T18:41:45.933Z,12.63
2022-11-02T18:46:49.151Z,14.80
2022-11-02T18:51:53.692Z,10.77
2022-11-02T18:56:56.533Z,15.73
2022-11-02T19:01:59.420Z,13.63
2022-11-02T19:07:21.413Z,13.27
2022-11-02T19:12:26.050Z,10.30
2022-11-02T19:17:29.059Z,10.50
2022-11-02T19:22:33.198Z,11.17
2022-11-02T19:27:36.236Z,10.37
2022-11-02T19:32:38.978Z,10.97
2022-11-02T19:37:43.043Z,9.77
2022-11-02T19:42:45.796Z,10.93
2022-11-02T19:47:50.078Z,16.60
2022-11-02T19:52:54.209Z,15.33
2022-11-02T19:57:56.951Z,17.27
2022-11-02T20:02:59.735Z,11.33
2022-11-02T20:08:04.676Z,13.97
2022-11-02T20:13:07.718Z,16.00
2022-11-02T20:18:19.459Z,11.53
2022-11-02T20:23:24.123Z,13.00
2022-11-02T20:28:26.842Z,15.43
2022-11-02T20:33:29.588Z,12.20
2022-11-02T20:38:34.676Z,15.77
2022-11-02T20:43:38.352Z,14.73
2022-11-02T20:48:41.338Z,14.83
2022-11-02T20:53:45.704Z,13.30
2022-11-02T20:58:55.502Z,17.47
2022-11-02T21:03:58.679Z,16.40
2022-11-02T21:09:09.028Z,12.10
2022-11-02T21:14:14.736Z,16.93
2022-11-02T21:19:17.616Z,16.10
2022-11-02T21:24:21.943Z,16.50
2022-11-02T21:29:24.837Z,17.37
2022-11-02T21:34:30.766Z,15.73
2022-11-02T21:40:03.347Z,19.33
2022-11-02T21:45:44.630Z,14.60
2022-11-02T21:51:23.101Z,15.47
2022-11-02T21:56:30.675Z,15.97
2022-11-02T22:01:48.433Z,24.60
2022-11-02T22:06:59.305Z,14.30
2022-11-02T22:12:18.049Z,14.70
2022-11-02T22:17:43.740Z,9.90
2022-11-02T22:22:44.079Z,14.77
2022-11-02T22:27:48.316Z,14.07
2022-11-02T22:32:53.182Z,10.03
2022-11-02T22:38:22.415Z,15.67
2022-11-02T22:43:27.098Z,11.73
2022-11-02T22:48:29.999Z,9.23
2022-11-02T22:53:35.195Z,20.63
2022-11-02T22:58:40.621Z,16.80
2022-11-02T23:03:49.520Z,12.73
2022-11-02T23:08:55.178Z,13.67
2022-11-02T23:14:10.712Z,13.03
2022-11-02T23:19:32.186Z,11.07
2022-11-02T23:24:52.547Z,13.70
2022-11-02T23:30:15.522Z,13.03
2022-11-02T23:35:35.349Z,13.23
2022-11-02T23:40:38.362Z,7.13
2022-11-02T23:45:42.857Z,11.47
2022-11-02T23:51:04.848Z,12.33
2022-11-02T23:56:31.952Z,12.80
